Time;durP1;ratioP1;P1;durP2;ratioP2;P2;SDS_P1;SDS_P2;PMS_P1;PMS_P2;Temp;Humidity;BMP_temperature;BMP_pressure;BME280_temperature;BME280_humidity;BME280_pressure;Samples;Min_cycle;Max_cycle;Signal;HPM_P1;HPM_P2
2021/07/06 00:02:12;;;;;;;2.80;1.88;;;;;;;16.62;100.00;100433.44;5202918;28;20017;-79
2021/07/06 00:04:42;;;;;;;2.85;1.58;;;;;;;16.60;100.00;100435.50;5221396;28;20025;-80
2021/07/06 00:07:18;;;;;;;2.35;1.85;;;;;;;16.58;100.00;100438.44;5220879;28;20032;-79
2021/07/06 00:09:49;;;;;;;3.20;1.75;;;;;;;16.57;100.00;100435.97;5220917;28;20013;-80
2021/07/06 00:12:19;;;;;;;8.75;1.70;;;;;;;16.58;100.00;100427.63;5220733;28;20031;-79
2021/07/06 00:14:50;;;;;;;2.15;1.95;;;;;;;16.55;100.00;100421.78;5221018;28;20306;-79
2021/07/06 00:17:20;;;;;;;4.82;1.60;;;;;;;16.58;100.00;100410.53;5202726;28;20025;-81
2021/07/06 00:19:51;;;;;;;8.13;2.47;;;;;;;16.51;100.00;100407.84;5221133;28;20021;-79
2021/07/06 00:22:22;;;;;;;4.70;2.03;;;;;;;16.46;100.00;100402.25;5220637;28;20484;-79
2021/07/06 00:24:52;;;;;;;2.25;2.05;;;;;;;16.44;100.00;100404.34;5220350;28;20025;-79
2021/07/06 00:27:23;;;;;;;3.60;1.95;;;;;;;16.49;100.00;100384.75;5220284;28;20391;-79
2021/07/06 00:29:53;;;;;;;3.85;2.47;;;;;;;16.44;100.00;100385.41;5211332;28;20638;-79
2021/07/06 00:32:24;;;;;;;2.28;1.98;;;;;;;16.39;100.00;100368.97;5220436;28;20027;-78
2021/07/06 00:34:54;;;;;;;5.57;2.05;;;;;;;16.36;100.00;100373.97;5220342;28;20033;-79
2021/07/06 00:37:25;;;;;;;3.40;2.10;;;;;;;16.36;100.00;100376.69;5212081;28;20017;-79
2021/07/06 00:39:57;;;;;;;3.75;2.13;;;;;;;16.33;100.00;100369.84;5219854;28;20129;-81
2021/07/06 00:42:28;;;;;;;3.35;2.45;;;;;;;16.34;100.00;100357.13;5220225;28;20029;-79
2021/07/06 00:44:59;;;;;;;3.80;2.22;;;;;;;16.33;100.00;100359.00;5220673;28;20025;-78
2021/07/06 00:47:33;;;;;;;4.95;1.98;;;;;;;16.38;100.00;100350.25;5220280;28;20369;-81
2021/07/06 00:50:07;;;;;;;5.05;2.40;;;;;;;16.39;100.00;100347.31;5220508;28;20064;-79
2021/07/06 00:52:38;;;;;;;9.38;2.60;;;;;;;16.42;100.00;100336.06;5220422;28;20090;-79
2021/07/06 00:55:09;;;;;;;5.18;2.20;;;;;;;16.46;100.00;100325.63;5220695;28;20020;-79
2021/07/06 00:57:40;;;;;;;2.72;2.25;;;;;;;16.47;100.00;100320.00;5219914;28;20036;-80
2021/07/06 01:00:13;;;;;;;6.25;2.42;;;;;;;16.48;100.00;100305.41;5220269;28;20395;-79
2021/07/06 01:02:44;;;;;;;3.13;2.58;;;;;;;16.44;100.00;100298.75;5219908;28;20035;-79
2021/07/06 01:05:17;;;;;;;2.83;2.53;;;;;;;16.46;100.00;100293.94;5221087;28;20496;-78
2021/07/06 01:07:57;;;;;;;2.58;2.22;;;;;;;16.47;100.00;100284.81;5216814;28;20021;-79
2021/07/06 01:10:28;;;;;;;4.80;2.50;;;;;;;16.44;100.00;100293.34;5220816;28;20036;-80
2021/07/06 01:12:59;;;;;;;6.20;2.50;;;;;;;16.42;100.00;100290.03;5219607;28;20035;-79
2021/07/06 01:15:31;;;;;;;4.72;3.15;;;;;;;16.41;100.00;100292.94;5220368;28;20228;-79
2021/07/06 01:18:18;;;;;;;4.38;2.00;;;;;;;16.39;100.00;100290.47;5204453;28;20492;-79
2021/07/06 01:20:52;;;;;;;7.72;2.80;;;;;;;16.38;100.00;100288.00;5219916;28;20035;-79
2021/07/06 01:23:28;;;;;;;2.90;2.30;;;;;;;16.41;100.00;100295.66;5219410;28;20435;-79
2021/07/06 01:26:07;;;;;;;6.30;2.40;;;;;;;16.41;100.00;100280.25;5220915;28;20024;-81
2021/07/06 01:28:41;;;;;;;6.75;2.38;;;;;;;16.42;100.00;100254.84;5219982;28;20025;-80
2021/07/06 01:31:12;;;;;;;4.28;2.10;;;;;;;16.49;100.00;100260.22;5219997;28;20593;-80
2021/07/06 01:33:42;;;;;;;4.30;2.30;;;;;;;16.49;100.00;100260.22;5220024;28;20047;-79
2021/07/06 01:36:16;;;;;;;2.45;2.25;;;;;;;16.50;100.00;100254.56;5219771;28;20024;-79
2021/07/06 01:38:46;;;;;;;4.75;2.10;;;;;;;16.53;100.00;100245.19;5208578;28;20021;-80
2021/07/06 01:41:18;;;;;;;4.88;1.85;;;;;;;16.53;100.00;100240.59;5219572;28;20028;-79
2021/07/06 01:43:49;;;;;;;5.35;2.00;;;;;;;16.52;100.00;100227.28;5219599;28;20021;-80
2021/07/06 01:46:20;;;;;;;2.88;1.88;;;;;;;16.52;100.00;100233.53;5220202;28;20499;-81
2021/07/06 01:48:58;;;;;;;4.78;1.90;;;;;;;16.52;100.00;100232.72;5219707;28;20036;-79
2021/07/06 01:51:30;;;;;;;5.05;1.92;;;;;;;16.51;100.00;100225.59;5224364;28;20016;-80
2021/07/06 01:54:02;;;;;;;2.75;2.08;;;;;;;16.49;100.00;100220.44;5226020;28;20369;-79
2021/07/06 01:56:45;;;;;;;2.22;1.73;;;;;;;16.52;100.00;100213.75;5220386;28;20033;-79
2021/07/06 01:59:16;;;;;;;2.85;1.70;;;;;;;16.52;100.00;100205.63;5218497;28;20021;-79
2021/07/06 02:01:47;;;;;;;4.50;1.77;;;;;;;16.54;100.00;100192.69;5220049;28;20033;-80
2021/07/06 02:04:18;;;;;;;5.50;1.95;;;;;;;16.51;100.00;100177.69;5219429;28;20021;-79
2021/07/06 02:06:49;;;;;;;2.22;1.95;;;;;;;16.53;100.00;100162.06;5220221;28;20043;-80
2021/07/06 02:09:20;;;;;;;2.90;2.25;;;;;;;16.57;100.00;100165.19;5218661;28;20234;-79
2021/07/06 02:11:50;;;;;;;4.05;2.00;;;;;;;16.59;100.00;100171.19;5220256;28;20021;-79
2021/07/06 02:14:21;;;;;;;5.40;1.77;;;;;;;16.63;100.00;100163.47;5219115;28;20025;-80
2021/07/06 02:16:52;;;;;;;5.80;1.83;;;;;;;16.65;100.00;100134.25;5220090;28;20021;-79
2021/07/06 02:19:22;;;;;;;2.15;1.70;;;;;;;16.61;100.00;100128.47;5219302;28;20314;-79
2021/07/06 02:21:53;;;;;;;4.20;2.10;;;;;;;16.58;100.00;100128.94;5219755;28;20079;-79
2021/07/06 02:24:23;;;;;;;5.55;1.80;;;;;;;16.60;100.00;100131.41;5207290;28;20024;-80
2021/07/06 02:26:54;;;;;;;5.43;1.95;;;;;;;16.60;100.00;100140.34;5220012;28;20419;-79
2021/07/06 02:29:24;;;;;;;2.17;1.58;;;;;;;16.55;100.00;100149.13;5218619;28;20021;-79
2021/07/06 02:31:55;;;;;;;8.85;2.00;;;;;;;16.50;100.00;100148.16;5219797;28;20071;-79
2021/07/06 02:34:25;;;;;;;4.55;1.60;;;;;;;16.47;100.00;100152.16;5218756;28;20035;-80
2021/07/06 02:36:56;;;;;;;5.40;1.80;;;;;;;16.48;100.00;100155.69;5220037;28;20017;-79
2021/07/06 02:39:27;;;;;;;2.67;1.80;;;;;;;16.38;100.00;100150.75;5213997;28;20028;-79
2021/07/06 02:41:57;;;;;;;4.10;1.63;;;;;;;16.36;100.00;100133.06;5218512;28;20033;-80
2021/07/06 02:44:28;;;;;;;7.55;2.15;;;;;;;16.38;100.00;100136.41;5218704;28;20028;-80
2021/07/06 02:46:59;;;;;;;3.40;1.67;;;;;;;16.42;100.00;100140.31;5219377;28;20029;-79
2021/07/06 02:49:29;;;;;;;2.22;1.67;;;;;;;16.41;100.00;100152.19;5222752;28;20021;-79
2021/07/06 02:52:00;;;;;;;3.03;1.58;;;;;;;16.39;100.00;100140.75;5224183;28;20498;-80
2021/07/06 02:54:30;;;;;;;6.63;1.83;;;;;;;16.46;100.00;100157.75;5223295;28;20043;-79
2021/07/06 02:57:03;;;;;;;4.68;1.63;;;;;;;16.52;100.00;100155.00;5223665;28;20472;-80
2021/07/06 02:59:33;;;;;;;3.00;2.00;;;;;;;16.63;100.00;100152.63;5222280;28;20036;-79
2021/07/06 03:02:04;;;;;;;9.82;1.70;;;;;;;16.68;100.00;100144.66;5222981;28;20033;-80
2021/07/06 03:04:35;;;;;;;14.30;2.55;;;;;;;16.82;100.00;100141.63;5222701;28;20033;-79
2021/07/06 03:07:05;;;;;;;2.40;1.60;;;;;;;16.86;100.00;100139.28;5223143;28;20515;-79
2021/07/06 03:09:36;;;;;;;6.28;1.73;;;;;;;16.89;100.00;100130.72;5215545;28;20025;-80
2021/07/06 03:12:06;;;;;;;5.45;2.10;;;;;;;16.97;100.00;100121.47;5222273;28;20483;-80
2021/07/06 03:14:37;;;;;;;5.25;2.03;;;;;;;17.05;100.00;100126.56;5222594;28;20028;-80
2021/07/06 03:17:07;;;;;;;4.32;1.27;;;;;;;17.13;100.00;100130.88;5223111;28;20258;-79
2021/07/06 03:19:38;;;;;;;6.57;1.40;;;;;;;17.14;100.00;100130.66;5222375;28;20436;-79
2021/07/06 03:22:08;;;;;;;10.75;1.60;;;;;;;17.15;100.00;100145.84;5222837;28;20025;-79
2021/07/06 03:24:39;;;;;;;3.45;1.63;;;;;;;17.16;100.00;100130.41;5222384;28;20056;-79
2021/07/06 03:27:09;;;;;;;5.70;1.42;;;;;;;17.16;100.00;100131.22;5223061;28;20051;-79
2021/07/06 03:29:40;;;;;;;3.40;1.90;;;;;;;17.12;100.00;100131.91;5214208;28;20024;-79
2021/07/06 03:32:11;;;;;;;5.47;1.40;;;;;;;17.09;100.00;100123.19;5222450;28;20414;-80
2021/07/06 03:34:42;;;;;;;7.25;1.60;;;;;;;17.10;100.00;100121.31;5222231;28;20400;-79
2021/07/06 03:37:12;;;;;;;2.63;1.90;;;;;;;17.13;100.00;100120.88;5222419;28;20017;-80
2021/07/06 03:39:43;;;;;;;3.70;1.75;;;;;;;17.12;100.00;100124.63;5221204;28;20107;-79
2021/07/06 03:42:13;;;;;;;4.55;1.58;;;;;;;17.07;100.00;100129.91;5222231;28;20027;-79
2021/07/06 03:44:44;;;;;;;2.90;1.50;;;;;;;17.02;100.00;100140.59;5222982;28;20300;-79
2021/07/06 03:47:14;;;;;;;4.03;1.75;;;;;;;16.97;100.00;100156.69;5222041;28;20021;-80
2021/07/06 03:49:45;;;;;;;2.63;1.60;;;;;;;16.95;100.00;100154.19;5221984;28;20028;-79
2021/07/06 03:52:15;;;;;;;6.28;1.60;;;;;;;16.95;100.00;100148.78;5223752;28;20151;-79
2021/07/06 03:54:46;;;;;;;4.10;1.40;;;;;;;17.01;100.00;100155.16;5222133;28;20484;-79
2021/07/06 03:57:28;;;;;;;3.70;1.80;;;;;;;17.04;100.00;100171.81;5222657;28;20646;-79
2021/07/06 04:00:03;;;;;;;2.22;1.42;;;;;;;17.07;100.00;100165.13;5221842;28;20116;-79
2021/07/06 04:02:34;;;;;;;;;;;;;;;17.11;100.00;100162.78;5223178;28;20484;-78
2021/07/06 04:05:07;;;;;;;1.65;1.48;;;;;;;17.12;100.00;100173.41;5211038;28;19954;-79
2021/07/06 04:07:39;;;;;;;5.05;1.90;;;;;;;17.16;100.00;100171.06;5222925;28;20025;-79
2021/07/06 04:10:12;;;;;;;3.88;1.70;;;;;;;17.19;100.00;100167.91;5212449;28;20021;-79
2021/07/06 04:12:43;;;;;;;3.38;1.50;;;;;;;17.24;100.00;100187.88;5222448;28;20388;-79
2021/07/06 04:15:15;;;;;;;4.00;1.75;;;;;;;17.31;100.00;100204.03;5222083;28;20025;-79
2021/07/06 04:17:46;;;;;;;6.40;1.35;;;;;;;17.38;100.00;100209.41;5205132;28;20021;-80
2021/07/06 04:20:17;;;;;;;7.50;1.83;;;;;;;17.53;100.00;100202.53;5223114;28;20103;-79
2021/07/06 04:22:48;;;;;;;2.85;1.50;;;;;;;17.65;100.00;100199.06;5222687;28;20549;-79
2021/07/06 04:25:18;;;;;;;6.45;1.60;;;;;;;17.68;100.00;100199.44;5222919;28;20029;-80
2021/07/06 04:27:51;;;;;;;4.97;1.85;;;;;;;17.73;100.00;100186.03;5226411;28;20028;-79
2021/07/06 04:30:22;;;;;;;3.83;1.80;;;;;;;17.75;100.00;100192.06;5213664;28;20021;-79
2021/07/06 04:32:52;;;;;;;4.43;1.73;;;;;;;17.76;100.00;100190.16;5226135;28;20557;-79
2021/07/06 04:35:23;;;;;;;5.00;1.50;;;;;;;17.78;100.00;100180.75;5225419;28;20036;-80
2021/07/06 04:37:53;;;;;;;3.33;1.75;;;;;;;17.85;100.00;100186.09;5226521;28;20025;-79
2021/07/06 04:40:24;;;;;;;5.35;2.25;;;;;;;17.92;100.00;100194.94;5212844;28;20061;-79
2021/07/06 04:42:55;;;;;;;4.53;1.67;;;;;;;17.92;100.00;100189.53;5227254;28;20025;-79
2021/07/06 04:45:26;;;;;;;13.90;2.30;;;;;;;17.97;100.00;100186.13;5226993;28;20028;-78
2021/07/06 04:47:57;;;;;;;4.93;1.70;;;;;;;17.99;100.00;100186.72;5226135;28;20040;-80
2021/07/06 04:50:28;;;;;;;6.18;2.60;;;;;;;18.00;100.00;100189.22;5225260;28;20414;-80
2021/07/06 04:52:58;;;;;;;6.05;1.88;;;;;;;18.01;100.00;100174.56;5232322;28;20572;-79
2021/07/06 04:55:30;;;;;;;7.45;2.10;;;;;;;17.98;100.00;100185.09;5221653;28;20031;-79
2021/07/06 04:58:00;;;;;;;8.52;1.98;;;;;;;17.96;100.00;100176.31;5222204;28;20036;-78
2021/07/06 05:00:31;;;;;;;7.47;1.90;;;;;;;17.96;100.00;100179.03;5221944;28;20029;-80
2021/07/06 05:03:01;;;;;;;4.82;2.22;;;;;;;17.96;100.00;100189.91;5222421;28;20017;-78
2021/07/06 05:05:35;;;;;;;4.93;2.28;;;;;;;17.97;100.00;100176.13;5221962;28;20052;-80
2021/07/06 05:08:06;;;;;;;6.32;2.08;;;;;;;17.95;100.00;100175.50;5221877;28;20395;-80
2021/07/06 05:10:37;;;;;;;5.30;2.30;;;;;;;17.97;100.00;100169.84;5220727;28;20583;-80
2021/07/06 05:13:08;;;;;;;4.72;2.42;;;;;;;18.03;100.00;100174.38;5221774;28;20410;-79
2021/07/06 05:15:38;;;;;;;5.97;1.80;;;;;;;18.03;100.00;100177.91;5221864;28;20025;-80
2021/07/06 05:18:09;;;;;;;5.65;2.03;;;;;;;18.07;100.00;100170.09;5221254;28;20124;-80
2021/07/06 05:20:40;;;;;;;6.72;2.03;;;;;;;18.08;100.00;100177.22;5222405;28;20045;-80
2021/07/06 05:23:10;;;;;;;12.07;2.00;;;;;;;18.10;100.00;100178.63;5224925;28;20021;-80
2021/07/06 05:25:41;;;;;;;6.57;2.10;;;;;;;18.18;100.00;100169.31;5207922;28;20436;-79
2021/07/06 05:28:11;;;;;;;5.57;1.95;;;;;;;18.22;100.00;100166.94;5225648;28;20119;-79
2021/07/06 05:30:42;;;;;;;22.75;2.25;;;;;;;18.27;100.00;100159.78;5214075;28;20017;-78
2021/07/06 05:33:12;;;;;;;3.53;1.85;;;;;;;18.36;100.00;100150.22;5226026;28;20029;-80
2021/07/06 05:35:43;;;;;;;3.92;2.05;;;;;;;18.35;100.00;100155.88;5224561;28;20029;-81
2021/07/06 05:38:13;;;;;;;9.35;2.17;;;;;;;18.42;100.00;100159.31;5225425;28;20028;-79
2021/07/06 05:40:44;;;;;;;4.47;1.90;;;;;;;18.43;100.00;100152.03;5225159;28;20028;-80
2021/07/06 05:43:14;;;;;;;3.50;1.58;;;;;;;18.46;100.00;100154.25;5224801;28;20523;-80
2021/07/06 05:45:45;;;;;;;9.65;2.08;;;;;;;18.49;100.00;100157.34;5225689;28;20108;-79
2021/07/06 05:48:16;;;;;;;4.32;1.55;;;;;;;18.52;100.00;100158.72;5224901;28;20083;-79
2021/07/06 05:50:47;;;;;;;6.60;1.50;;;;;;;18.55;100.00;100171.84;5225683;28;20086;-79
2021/07/06 05:53:18;;;;;;;2.20;1.50;;;;;;;18.57;100.00;100158.84;5232392;28;20186;-80
2021/07/06 05:55:48;;;;;;;2.05;1.60;;;;;;;18.63;100.00;100160.66;5225344;28;20020;-79
2021/07/06 05:58:19;;;;;;;2.63;1.40;;;;;;;18.68;100.00;100154.50;5217310;28;20025;-78
2021/07/06 06:00:49;;;;;;;3.60;1.70;;;;;;;18.68;100.00;100163.53;5223719;28;20061;-77
2021/07/06 06:03:20;;;;;;;3.13;1.20;;;;;;;18.73;100.00;100163.63;5223748;28;20029;-79
2021/07/06 06:05:52;;;;;;;5.55;1.50;;;;;;;18.81;100.00;100171.41;5225733;28;20032;-78
2021/07/06 06:08:22;;;;;;;4.05;1.50;;;;;;;18.81;100.00;100165.16;5224528;28;20032;-79
2021/07/06 06:10:53;;;;;;;4.07;1.52;;;;;;;18.84;100.00;100175.56;5220332;28;20021;-79
2021/07/06 06:13:23;;;;;;;2.03;1.15;;;;;;;18.86;100.00;100162.56;5224336;28;20085;-79
2021/07/06 06:15:53;;;;;;;4.25;1.95;;;;;;;18.86;100.00;100173.44;5225760;28;20031;-78
2021/07/06 06:18:24;;;;;;;2.83;1.70;;;;;;;18.79;100.00;100172.72;5224317;28;20024;-80
2021/07/06 06:20:55;;;;;;;4.35;1.73;;;;;;;18.77;100.00;100167.50;5211466;28;20029;-82
2021/07/06 06:23:25;;;;;;;3.92;1.85;;;;;;;18.62;100.00;100173.41;5219127;28;20109;-82
2021/07/06 06:25:56;;;;;;;6.85;1.80;;;;;;;18.52;100.00;100184.00;5225470;28;20111;-79
2021/07/06 06:28:27;;;;;;;9.20;1.80;;;;;;;18.14;100.00;100170.84;5225426;28;20028;-82
2021/07/06 06:30:57;;;;;;;4.10;1.75;;;;;;;17.94;100.00;100182.00;5219188;28;20017;-82
2021/07/06 06:33:28;;;;;;;6.32;1.85;;;;;;;17.72;100.00;100189.78;5226338;28;20025;-83
2021/07/06 06:35:58;;;;;;;7.22;2.50;;;;;;;17.57;100.00;100194.75;5224026;28;20032;-82
2021/07/06 06:38:29;;;;;;;8.95;1.67;;;;;;;17.64;100.00;100202.84;5227629;28;20031;-83
2021/07/06 06:40:59;;;;;;;7.40;1.70;;;;;;;17.51;100.00;100209.22;5226616;28;20047;-83
2021/07/06 06:43:30;;;;;;;5.82;2.42;;;;;;;17.48;100.00;100210.53;5226501;28;20025;-81
2021/07/06 06:46:01;;;;;;;7.57;2.35;;;;;;;17.46;100.00;100207.19;5228558;28;20029;-83
2021/07/06 06:48:32;;;;;;;6.50;2.08;;;;;;;17.54;100.00;100209.63;5225965;28;20056;-83
2021/07/06 06:51:03;;;;;;;4.55;1.80;;;;;;;17.63;100.00;100217.44;5226002;28;20021;-82
2021/07/06 06:53:33;;;;;;;5.38;1.60;;;;;;;17.68;100.00;100220.31;5228310;28;20017;-81
2021/07/06 06:56:04;;;;;;;8.32;1.88;;;;;;;17.74;100.00;100225.66;5226453;28;20480;-78
2021/07/06 06:58:34;;;;;;;4.50;1.20;;;;;;;17.78;100.00;100232.31;5227542;28;20031;-82
2021/07/06 07:01:05;;;;;;;6.75;1.45;;;;;;;17.86;100.00;100237.41;5221677;28;20025;-81
2021/07/06 07:03:35;;;;;;;8.20;1.52;;;;;;;17.84;100.00;100234.09;5221638;28;20023;-83
2021/07/06 07:06:06;;;;;;;2.03;0.90;;;;;;;17.76;100.00;100239.81;5222108;28;20035;-84
2021/07/06 07:08:37;;;;;;;9.90;1.20;;;;;;;17.59;100.00;100236.88;5222096;28;20028;-81
2021/07/06 07:11:07;;;;;;;3.13;0.95;;;;;;;17.54;100.00;100238.63;5222349;28;20013;-83
2021/07/06 07:13:38;;;;;;;1.73;0.88;;;;;;;17.68;100.00;100244.72;5221032;28;20037;-81
2021/07/06 07:16:09;;;;;;;9.27;1.38;;;;;;;17.96;100.00;100250.41;5224215;28;20027;-81
2021/07/06 07:18:40;;;;;;;7.55;1.10;;;;;;;17.99;100.00;100252.69;5221547;28;20056;-80
2021/07/06 07:21:11;;;;;;;7.15;1.33;;;;;;;18.24;100.00;100263.41;5221418;28;20467;-81
2021/07/06 07:23:41;;;;;;;8.85;1.00;;;;;;;18.48;100.00;100263.50;5221543;28;20020;-81
2021/07/06 07:26:12;;;;;;;7.47;1.45;;;;;;;18.65;100.00;100259.03;5222286;28;20111;-81
2021/07/06 07:28:42;;;;;;;3.65;1.20;;;;;;;18.63;100.00;100256.56;5221421;28;20039;-82
2021/07/06 07:31:13;;;;;;;3.72;1.33;;;;;;;18.66;100.00;100262.56;5221619;28;20476;-82
2021/07/06 07:33:43;;;;;;;7.57;1.42;;;;;;;18.91;100.00;100256.97;5220536;28;20112;-82
2021/07/06 07:36:14;;;;;;;8.18;1.17;;;;;;;19.09;100.00;100262.31;5221985;28;20021;-81
2021/07/06 07:38:45;;;;;;;8.52;1.80;;;;;;;19.02;100.00;100265.13;5220856;28;20500;-81
2021/07/06 07:41:16;;;;;;;12.40;1.90;;;;;;;19.13;100.00;100268.94;5220645;28;20042;-81
2021/07/06 07:43:49;;;;;;;10.60;1.90;;;;;;;19.03;100.00;100268.69;5221500;28;20029;-82
2021/07/06 07:46:22;;;;;;;8.13;1.00;;;;;;;18.78;100.00;100267.00;5223945;28;20435;-81
2021/07/06 07:48:52;;;;;;;3.88;1.20;;;;;;;19.00;100.00;100263.72;5222930;28;20029;-80
2021/07/06 07:51:23;;;;;;;5.80;1.60;;;;;;;18.94;100.00;100270.09;5225818;28;20009;-82
2021/07/06 07:53:53;;;;;;;15.25;1.90;;;;;;;18.87;100.00;100273.72;5223504;28;20074;-80
2021/07/06 07:56:24;;;;;;;12.75;1.48;;;;;;;18.89;100.00;100276.25;5222619;28;20396;-79
2021/07/06 07:58:54;;;;;;;5.85;1.23;;;;;;;19.14;100.00;100281.44;5224504;28;20136;-79
2021/07/06 08:01:25;;;;;;;7.43;1.10;;;;;;;19.47;100.00;100274.56;5223292;28;20021;-77
2021/07/06 08:03:55;;;;;;;8.15;1.33;;;;;;;19.58;100.00;100277.28;5223888;28;20021;-79
2021/07/06 08:06:26;;;;;;;6.70;1.10;;;;;;;19.69;100.00;100291.13;5224482;28;20025;-80
2021/07/06 08:08:57;;;;;;;7.13;1.58;;;;;;;19.86;100.00;100297.47;5224041;28;20167;-79
2021/07/06 08:11:27;;;;;;;7.82;1.60;;;;;;;19.95;100.00;100285.16;5223852;28;20021;-81
2021/07/06 08:13:58;;;;;;;3.78;1.27;;;;;;;20.01;100.00;100288.78;5222791;28;20152;-80
2021/07/06 08:16:28;;;;;;;6.65;1.50;;;;;;;20.19;100.00;100291.34;5224210;28;20017;-79
2021/07/06 08:18:59;;;;;;;7.40;1.20;;;;;;;20.17;100.00;100288.84;5224621;28;20028;-80
2021/07/06 08:21:30;;;;;;;10.88;1.35;;;;;;;20.04;100.00;100288.31;5224440;28;20504;-81
2021/07/06 08:24:02;;;;;;;6.68;1.10;;;;;;;20.25;100.00;100295.81;5223736;28;20403;-80
2021/07/06 08:26:35;;;;;;;5.80;1.30;;;;;;;20.61;100.00;100291.88;5222813;28;20021;-78
2021/07/06 08:29:06;;;;;;;6.15;1.40;;;;;;;20.83;100.00;100302.03;5223889;28;20029;-79
2021/07/06 08:31:37;;;;;;;5.10;1.15;;;;;;;21.04;100.00;100282.22;5205623;28;20029;-80
2021/07/06 08:34:08;;;;;;;3.95;0.80;;;;;;;21.28;100.00;100273.84;5224604;28;20043;-81
2021/07/06 08:36:38;;;;;;;8.52;1.02;;;;;;;21.27;100.00;100283.94;5224594;28;20106;-81
2021/07/06 08:39:09;;;;;;;4.45;1.20;;;;;;;21.08;100.00;100288.81;5223381;28;20052;-79
2021/07/06 08:41:40;;;;;;;4.80;0.88;;;;;;;20.46;100.00;100296.19;5219428;28;20028;-81
2021/07/06 08:44:10;;;;;;;2.53;0.80;;;;;;;20.21;100.00;100297.38;5219326;28;20193;-80
2021/07/06 08:46:41;;;;;;;7.00;1.30;;;;;;;20.21;100.00;100313.69;5224162;28;20353;-80
2021/07/06 08:49:12;;;;;;;5.10;0.65;;;;;;;20.13;100.00;100322.25;5224024;28;20021;-80
2021/07/06 08:51:46;;;;;;;6.82;1.40;;;;;;;20.25;100.00;100327.66;5229088;28;20020;-80
2021/07/06 08:54:20;;;;;;;9.90;1.55;;;;;;;20.08;100.00;100322.13;5225007;28;20025;-80
2021/07/06 08:56:51;;;;;;;9.00;1.50;;;;;;;20.56;100.00;100329.09;5223839;28;20021;-79
2021/07/06 08:59:21;;;;;;;7.22;1.13;;;;;;;20.63;100.00;100329.75;5224545;28;20032;-80
2021/07/06 09:01:52;;;;;;;12.80;2.65;;;;;;;20.93;100.00;100340.38;5223242;28;20025;-78
2021/07/06 09:04:23;;;;;;;5.38;1.13;;;;;;;21.37;100.00;100351.50;5223064;28;20116;-81
2021/07/06 09:06:56;;;;;;;8.38;1.52;;;;;;;20.94;97.58;100358.41;5222901;28;20044;-81
2021/07/06 09:09:28;;;;;;;6.65;1.77;;;;;;;20.18;100.00;100355.03;5222507;28;20334;-80
2021/07/06 09:12:00;;;;;;;10.20;1.52;;;;;;;19.92;100.00;100361.84;5218273;28;20039;-79
2021/07/06 09:14:31;;;;;;;9.50;1.52;;;;;;;19.59;100.00;100359.72;5222968;28;20016;-80
2021/07/06 09:17:13;;;;;;;6.97;1.52;;;;;;;19.37;100.00;100364.91;5223273;28;20043;-80
2021/07/06 09:19:46;;;;;;;11.38;1.88;;;;;;;19.21;100.00;100366.44;5222764;28;20422;-79
2021/07/06 09:22:26;;;;;;;7.93;1.33;;;;;;;19.03;100.00;100377.44;5222386;28;20036;-79
2021/07/06 09:25:02;;;;;;;11.32;1.70;;;;;;;18.99;100.00;100374.34;5221810;28;20037;-79
2021/07/06 09:27:36;;;;;;;14.85;1.63;;;;;;;19.18;100.00;100377.81;5223507;28;20484;-80
2021/07/06 09:30:19;;;;;;;10.30;1.60;;;;;;;19.44;100.00;100392.03;5221737;28;20021;-79
2021/07/06 09:32:54;;;;;;;8.35;1.70;;;;;;;19.61;100.00;100410.16;5223274;28;20129;-78
2021/07/06 09:35:28;;;;;;;6.93;1.27;;;;;;;19.62;100.00;100384.59;5222449;28;20021;-81
2021/07/06 09:38:02;;;;;;;8.30;1.70;;;;;;;19.45;100.00;100380.06;5221451;28;20013;-80
2021/07/06 09:40:34;;;;;;;9.65;1.50;;;;;;;19.20;100.00;100402.88;5223904;28;20307;-79
2021/07/06 09:43:28;;;;;;;4.68;1.83;;;;;;;19.12;100.00;100400.47;5215148;28;20036;-80
2021/07/06 09:46:09;;;;;;;10.05;1.40;;;;;;;18.93;100.00;100401.63;5206613;28;20053;-82
2021/07/06 09:48:47;;;;;;;5.45;1.25;;;;;;;18.82;100.00;100393.19;5225909;28;20031;-80
2021/07/06 09:51:27;;;;;;;10.27;1.77;;;;;;;18.96;100.00;100393.81;5221023;28;20092;-79
2021/07/06 09:54:03;;;;;;;12.35;1.75;;;;;;;19.30;100.00;100403.13;5221849;28;20025;-78
2021/07/06 09:56:46;;;;;;;8.93;1.92;;;;;;;19.54;100.00;100409.41;5192036;28;20037;-78
2021/07/06 09:59:18;;;;;;;8.10;1.80;;;;;;;19.71;100.00;100414.16;5190678;28;20090;-80
2021/07/06 10:02:02;;;;;;;9.73;1.60;;;;;;;19.83;100.00;100404.94;5228254;28;20405;-77
2021/07/06 10:04:37;;;;;;;9.48;1.20;;;;;;;19.74;100.00;100424.59;5208423;28;20021;-78
2021/07/06 10:07:11;;;;;;;10.57;1.88;;;;;;;19.75;100.00;100418.91;5193663;28;20072;-76
2021/07/06 10:09:45;;;;;;;6.43;1.30;;;;;;;20.07;100.00;100415.78;5193930;28;20036;-77
2021/07/06 10:12:18;;;;;;;11.85;2.05;;;;;;;20.47;100.00;100423.19;5209918;28;20041;-76
2021/07/06 10:14:53;;;;;;;7.30;1.42;;;;;;;20.74;100.00;100434.38;5227594;28;20033;-77
2021/07/06 10:17:25;;;;;;;;;;;;;;;20.45;99.39;100420.69;5227567;28;20048;-78
2021/07/06 10:19:58;;;;;;;6.30;1.83;;;;;;;20.65;100.00;100425.75;5211875;28;19917;-79
2021/07/06 10:22:30;;;;;;;13.63;1.50;;;;;;;20.94;95.38;100424.69;5228568;28;20724;-81
2021/07/06 10:25:07;;;;;;;14.82;2.13;;;;;;;20.72;97.62;100436.50;5211271;28;20078;-78
2021/07/06 10:27:51;;;;;;;4.85;1.10;;;;;;;20.57;92.06;100439.75;5228844;28;20029;-79
2021/07/06 10:30:30;;;;;;;4.68;1.17;;;;;;;20.95;100.00;100437.22;5208812;28;20020;-79
2021/07/06 10:33:16;;;;;;;6.80;1.27;;;;;;;21.25;100.00;100444.31;5223022;28;20048;-79
2021/07/06 10:35:51;;;;;;;6.53;1.30;;;;;;;21.54;100.00;100442.38;5203912;28;20033;-78
2021/07/06 10:38:47;;;;;;;4.67;1.33;;;;;;;21.23;91.36;100457.34;5212067;28;20113;-80
2021/07/06 10:41:43;;;;;;;18.13;1.58;;;;;;;20.99;98.34;100459.41;5218804;22;20708;-68
2021/07/06 10:44:18;;;;;;;11.30;1.73;;;;;;;21.04;88.98;100462.22;5194978;28;20041;-67
2021/07/06 10:46:49;;;;;;;3.97;1.10;;;;;;;21.12;100.00;100467.25;5200675;28;20264;-66
2021/07/06 10:49:34;;;;;;;8.55;1.40;;;;;;;21.51;98.55;100469.31;5213066;28;20025;-67
2021/07/06 10:52:10;;;;;;;6.45;1.27;;;;;;;21.17;96.57;100464.63;5197608;28;20042;-67
2021/07/06 10:54:51;;;;;;;7.97;1.40;;;;;;;21.18;100.00;100468.16;5200097;28;20033;-68
2021/07/06 10:57:25;;;;;;;8.38;1.10;;;;;;;21.13;100.00;100479.81;5182303;28;20379;-67
2021/07/06 10:59:59;;;;;;;7.65;1.52;;;;;;;20.87;96.47;100483.97;5199657;28;20264;-67
2021/07/06 11:02:32;;;;;;;6.85;1.05;;;;;;;20.30;92.53;100489.31;5205874;28;20410;-67
2021/07/06 11:05:07;;;;;;;3.63;0.80;;;;;;;20.13;94.41;100485.63;5204795;28;20030;-67
2021/07/06 11:07:48;;;;;;;3.08;0.98;;;;;;;19.78;100.00;100478.31;5207992;28;20063;-67
2021/07/06 11:10:21;;;;;;;7.55;1.25;;;;;;;19.84;100.00;100482.00;5203019;28;20032;-67
2021/07/06 11:12:54;;;;;;;10.45;1.80;;;;;;;20.28;100.00;100486.00;5181368;28;20437;-68
2021/07/06 11:15:27;;;;;;;6.60;1.30;;;;;;;20.73;100.00;100474.41;5185559;28;20517;-67
2021/07/06 11:18:02;;;;;;;6.72;1.13;;;;;;;21.18;100.00;100477.19;5184392;28;20065;-68
2021/07/06 11:20:48;;;;;;;6.28;1.17;;;;;;;21.65;99.55;100476.94;5197432;28;20380;-67
2021/07/06 11:23:37;;;;;;;5.90;1.13;;;;;;;21.62;100.00;100480.16;5211567;28;20037;-68
2021/07/06 11:26:10;;;;;;;8.50;0.90;;;;;;;21.85;100.00;100479.16;5190811;28;20029;-68
2021/07/06 11:28:51;;;;;;;3.58;1.05;;;;;;;22.12;86.28;100483.94;5199788;28;20029;-66
2021/07/06 11:31:30;;;;;;;6.37;1.30;;;;;;;21.95;82.98;100489.41;5198878;28;20021;-67
2021/07/06 11:34:04;;;;;;;7.95;1.48;;;;;;;21.95;89.95;100484.78;5205972;28;20502;-69
2021/07/06 11:36:41;;;;;;;11.15;1.75;;;;;;;22.47;86.62;100500.00;5207861;28;20021;-68
2021/07/06 11:39:14;;;;;;;;;;;;;;;22.11;79.01;100498.69;5183988;28;20179;-67
2021/07/06 11:41:50;;;;;;;7.35;1.38;;;;;;;21.51;81.13;100499.34;5200118;28;19924;-66